Maria Dos Anxos — ECCL — position and weather

sailwx.info

Track history (hours):
 
Tides and Currents Weather Stations Pressure Air Temp Water Temp Dewpoint Dewpoint Depression Visibility Wind Speed Wind Dir Waves Ship Positions

Maria Dos Anxos

Last reported at 2016-Apr-14 02:23 UTC. Time now 2016-Jul-30 11:15 UTC.
Position N 43°44' W 005°51'.
Warning: this ship's position is months out of date.

Length 30 m; draft 4 m.

Type: Fishing. MMSI: 224081150.

Date/timePositionNaut miles runAvg speedWind from/ knotsBaromVisibWave heightAir tempDewpointWater temp
2016-Apr-14 02:23N 43°44' W 005°51'22 7.6
2016-Apr-13 23:32N 43°39' W 005°22'0 0.2
2016-Apr-13 22:33N 43°40' W 005°22'5 1.2
2016-Apr-13 18:30N 43°41' W 005°28'1110.8
2016-Apr-13 17:28N 43°43' W 005°44'  
2016-Apr-06 23:33N 43°37' W 005°43'3 3.3
2016-Apr-06 22:33N 43°33' W 005°42'0 0.0
2016-Apr-06 21:25N 43°33' W 005°42'0 0.0
2016-Apr-06 20:30N 43°33' W 005°42'0 0.0
2016-Apr-06 19:33N 43°33' W 005°42'0 0.0
2016-Apr-06 18:33N 43°33' W 005°42'0 0.1
2016-Apr-06 17:33N 43°33' W 005°42'5 4.4
2016-Apr-06 16:27N 43°38' W 005°44'3 0.1
2016-Apr-05 22:29N 43°36' W 005°42'9 1.1
2016-Apr-05 14:29N 43°41' W 005°31'7 0.5
2016-Apr-05 01:33N 43°40' W 005°22'0 0.2
2016-Apr-05 00:14N 43°40' W 005°22'11 2.3
2016-Apr-04 19:33N 43°36' W 005°36'5 4.0
2016-Apr-04 18:18N 43°33' W 005°42'0 0.0
2016-Apr-04 17:33N 43°33' W 005°42'16 5.4
2016-Apr-04 14:33N 43°41' W 005°22'2 1.1
2016-Apr-04 13:03N 43°39' W 005°22'4 0.5
2016-Apr-04 04:25N 43°37' W 005°27'7 8.6
2016-Apr-04 03:33N 43°35' W 005°37'4 4.0
2016-Apr-04 02:33N 43°33' W 005°42'  
Track history (hours):
 
Tides and Currents Weather Stations Pressure Air Temp Water Temp Dewpoint Dewpoint Depression Visibility Wind Speed Wind Dir Waves Ship Positions

Maria Dos Anxos

Last reported at 2016-Apr-14 02:23 UTC. Time now 2016-Jul-30 11:15 UTC.
Position N 43°44' W 005°51'.
Warning: this ship's position is months out of date.

Length 30 m; draft 4 m.

Type: Fishing. MMSI: 224081150.

Date/timePositionNaut miles runAvg speedWind from/ knotsBaromVisibWave heightAir tempDewpointWater temp
2016-Apr-14 02:23N 43°44' W 005°51'22 7.6
2016-Apr-13 23:32N 43°39' W 005°22'0 0.2
2016-Apr-13 22:33N 43°40' W 005°22'5 1.2
2016-Apr-13 18:30N 43°41' W 005°28'1110.8
2016-Apr-13 17:28N 43°43' W 005°44'  
2016-Apr-06 23:33N 43°37' W 005°43'3 3.3
2016-Apr-06 22:33N 43°33' W 005°42'0 0.0
2016-Apr-06 21:25N 43°33' W 005°42'0 0.0
2016-Apr-06 20:30N 43°33' W 005°42'0 0.0
2016-Apr-06 19:33N 43°33' W 005°42'0 0.0
2016-Apr-06 18:33N 43°33' W 005°42'0 0.1
2016-Apr-06 17:33N 43°33' W 005°42'5 4.4
2016-Apr-06 16:27N 43°38' W 005°44'3 0.1
2016-Apr-05 22:29N 43°36' W 005°42'9 1.1
2016-Apr-05 14:29N 43°41' W 005°31'7 0.5
2016-Apr-05 01:33N 43°40' W 005°22'0 0.2
2016-Apr-05 00:14N 43°40' W 005°22'11 2.3
2016-Apr-04 19:33N 43°36' W 005°36'5 4.0
2016-Apr-04 18:18N 43°33' W 005°42'0 0.0
2016-Apr-04 17:33N 43°33' W 005°42'16 5.4
2016-Apr-04 14:33N 43°41' W 005°22'2 1.1
2016-Apr-04 13:03N 43°39' W 005°22'4 0.5
2016-Apr-04 04:25N 43°37' W 005°27'7 8.6
2016-Apr-04 03:33N 43°35' W 005°37'4 4.0
2016-Apr-04 02:33N 43°33' W 005°42'  

Dump ship's entire track history